sensor_id;sensor_type;location;lat;lon;timestamp;temperature;humidity
8463;DHT22;4268;52.506;13.462;2023-02-21T00:01:33;9.10;99.90
8463;DHT22;4268;52.506;13.462;2023-02-21T00:04:17;9.10;99.90
8463;DHT22;4268;52.506;13.462;2023-02-21T00:07:02;9.20;99.90
8463;DHT22;4268;52.506;13.462;2023-02-21T00:09:46;9.10;99.90
8463;DHT22;4268;52.506;13.462;2023-02-21T00:12:30;9.10;99.90
8463;DHT22;4268;52.506;13.462;2023-02-21T00:15:14;9.10;99.90
8463;DHT22;4268;52.506;13.462;2023-02-21T00:17:58;9.10;99.90
8463;DHT22;4268;52.506;13.462;2023-02-21T00:20:42;9.00;99.90
8463;DHT22;4268;52.506;13.462;2023-02-21T00:23:26;9.10;99.90
8463;DHT22;4268;52.506;13.462;2023-02-21T00:26:10;9.20;99.90
8463;DHT22;4268;52.506;13.462;2023-02-21T00:28:54;9.20;99.90
8463;DHT22;4268;52.506;13.462;2023-02-21T00:31:38;10.20;99.90
8463;DHT22;4268;52.506;13.462;2023-02-21T00:34:22;9.10;99.90
8463;DHT22;4268;52.506;13.462;2023-02-21T00:37:06;9.20;99.90
8463;DHT22;4268;52.506;13.462;2023-02-21T00:39:50;9.10;99.90
8463;DHT22;4268;52.506;13.462;2023-02-21T00:42:34;9.10;99.90
8463;DHT22;4268;52.506;13.462;2023-02-21T00:45:18;9.10;99.90
8463;DHT22;4268;52.506;13.462;2023-02-21T00:48:02;9.10;99.90
8463;DHT22;4268;52.506;13.462;2023-02-21T00:50:46;9.10;99.90
8463;DHT22;4268;52.506;13.462;2023-02-21T00:53:30;9.10;99.90
8463;DHT22;4268;52.506;13.462;2023-02-21T00:56:14;9.10;99.90
8463;DHT22;4268;52.506;13.462;2023-02-21T00:58:58;9.10;99.90
8463;DHT22;4268;52.506;13.462;2023-02-21T01:01:42;9.10;99.90
8463;DHT22;4268;52.506;13.462;2023-02-21T01:04:26;9.20;99.90
8463;DHT22;4268;52.506;13.462;2023-02-21T01:07:10;9.20;99.90
8463;DHT22;4268;52.506;13.462;2023-02-21T01:09:54;9.20;99.90
8463;DHT22;4268;52.506;13.462;2023-02-21T01:12:38;9.20;99.90
8463;DHT22;4268;52.506;13.462;2023-02-21T01:15:23;9.20;99.90
8463;DHT22;4268;52.506;13.462;2023-02-21T01:18:08;9.20;99.90
8463;DHT22;4268;52.506;13.462;2023-02-21T01:20:52;9.20;99.90
8463;DHT22;4268;52.506;13.462;2023-02-21T01:23:36;9.20;99.90
8463;DHT22;4268;52.506;13.462;2023-02-21T01:26:20;9.20;99.90
8463;DHT22;4268;52.506;13.462;2023-02-21T01:29:04;9.20;99.90
8463;DHT22;4268;52.506;13.462;2023-02-21T01:31:49;9.20;99.90
8463;DHT22;4268;52.506;13.462;2023-02-21T01:34:33;9.20;99.90
8463;DHT22;4268;52.506;13.462;2023-02-21T01:37:17;9.20;99.90
8463;DHT22;4268;52.506;13.462;2023-02-21T01:40:01;9.20;99.90
8463;DHT22;4268;52.506;13.462;2023-02-21T01:42:45;9.20;99.90
8463;DHT22;4268;52.506;13.462;2023-02-21T01:48:21;9.20;99.90
8463;DHT22;4268;52.506;13.462;2023-02-21T01:51:08;9.30;99.90
8463;DHT22;4268;52.506;13.462;2023-02-21T01:53:53;9.30;99.90
8463;DHT22;4268;52.506;13.462;2023-02-21T01:56:38;9.20;99.90
8463;DHT22;4268;52.506;13.462;2023-02-21T01:59:23;9.20;99.90
8463;DHT22;4268;52.506;13.462;2023-02-21T02:02:20;9.20;99.90
8463;DHT22;4268;52.506;13.462;2023-02-21T02:05:06;9.20;99.90
8463;DHT22;4268;52.506;13.462;2023-02-21T02:07:53;9.30;99.90
8463;DHT22;4268;52.506;13.462;2023-02-21T02:10:37;9.20;99.90
8463;DHT22;4268;52.506;13.462;2023-02-21T02:16:27;9.30;99.90
8463;DHT22;4268;52.506;13.462;2023-02-21T02:19:15;9.30;99.90
8463;DHT22;4268;52.506;13.462;2023-02-21T02:22:21;9.30;99.90
8463;DHT22;4268;52.506;13.462;2023-02-21T02:25:10;9.30;99.90
8463;DHT22;4268;52.506;13.462;2023-02-21T02:27:53;9.30;99.90
8463;DHT22;4268;52.506;13.462;2023-02-21T02:36:01;9.40;99.90
8463;DHT22;4268;52.506;13.462;2023-02-21T02:38:45;9.40;99.90
8463;DHT22;4268;52.506;13.462;2023-02-21T02:41:31;9.40;99.90
8463;DHT22;4268;52.506;13.462;2023-02-21T02:44:07;9.40;99.90
8463;DHT22;4268;52.506;13.462;2023-02-21T02:46:37;9.50;99.90
8463;DHT22;4268;52.506;13.462;2023-02-21T02:49:08;9.40;99.90
8463;DHT22;4268;52.506;13.462;2023-02-21T02:51:35;9.50;99.90
8463;DHT22;4268;52.506;13.462;2023-02-21T02:54:01;9.50;99.90
8463;DHT22;4268;52.506;13.462;2023-02-21T02:56:26;9.50;99.90
8463;DHT22;4268;52.506;13.462;2023-02-21T02:58:56;9.50;99.90
8463;DHT22;4268;52.506;13.462;2023-02-21T03:01:27;9.50;99.90
8463;DHT22;4268;52.506;13.462;2023-02-21T03:09:58;9.50;99.90
8463;DHT22;4268;52.506;13.462;2023-02-21T03:12:35;9.50;99.90
8463;DHT22;4268;52.506;13.462;2023-02-21T03:15:19;9.50;99.90
8463;DHT22;4268;52.506;13.462;2023-02-21T03:18:02;9.50;99.90
8463;DHT22;4268;52.506;13.462;2023-02-21T03:20:31;9.50;99.90
8463;DHT22;4268;52.506;13.462;2023-02-21T03:22:57;9.50;99.90
8463;DHT22;4268;52.506;13.462;2023-02-21T03:25:28;9.60;99.90
8463;DHT22;4268;52.506;13.462;2023-02-21T03:27:56;9.50;99.90
8463;DHT22;4268;52.506;13.462;2023-02-21T03:30:22;9.60;99.90
8463;DHT22;4268;52.506;13.462;2023-02-21T03:32:51;9.60;99.90
8463;DHT22;4268;52.506;13.462;2023-02-21T03:35:18;9.60;99.90
8463;DHT22;4268;52.506;13.462;2023-02-21T03:37:48;9.60;99.90
8463;DHT22;4268;52.506;13.462;2023-02-21T03:40:20;9.60;99.90
8463;DHT22;4268;52.506;13.462;2023-02-21T03:42:48;9.60;99.90
8463;DHT22;4268;52.506;13.462;2023-02-21T03:45:14;9.60;99.90
8463;DHT22;4268;52.506;13.462;2023-02-21T03:47:39;9.70;99.90
8463;DHT22;4268;52.506;13.462;2023-02-21T03:50:05;9.60;99.90
8463;DHT22;4268;52.506;13.462;2023-02-21T03:52:31;9.70;99.90
8463;DHT22;4268;52.506;13.462;2023-02-21T03:54:57;9.80;99.90
8463;DHT22;4268;52.506;13.462;2023-02-21T03:57:22;9.70;99.90
8463;DHT22;4268;52.506;13.462;2023-02-21T03:59:48;9.70;99.90
8463;DHT22;4268;52.506;13.462;2023-02-21T04:02:13;9.70;99.90
8463;DHT22;4268;52.506;13.462;2023-02-21T04:04:39;9.80;99.90
8463;DHT22;4268;52.506;13.462;2023-02-21T04:07:05;9.70;99.90
8463;DHT22;4268;52.506;13.462;2023-02-21T04:09:30;9.80;99.90
8463;DHT22;4268;52.506;13.462;2023-02-21T04:11:56;9.70;99.90
8463;DHT22;4268;52.506;13.462;2023-02-21T04:14:21;9.80;99.90
8463;DHT22;4268;52.506;13.462;2023-02-21T04:16:47;9.70;99.90
8463;DHT22;4268;52.506;13.462;2023-02-21T04:19:12;9.80;99.90
8463;DHT22;4268;52.506;13.462;2023-02-21T04:21:38;9.90;99.90
8463;DHT22;4268;52.506;13.462;2023-02-21T04:24:03;9.80;99.90
8463;DHT22;4268;52.506;13.462;2023-02-21T04:26:29;9.80;99.90
8463;DHT22;4268;52.506;13.462;2023-02-21T04:28:55;9.80;99.90
8463;DHT22;4268;52.506;13.462;2023-02-21T04:31:21;9.90;99.90
8463;DHT22;4268;52.506;13.462;2023-02-21T04:33:47;9.90;99.90
8463;DHT22;4268;52.506;13.462;2023-02-21T04:36:12;9.90;99.90
8463;DHT22;4268;52.506;13.462;2023-02-21T04:38:38;9.90;99.90
8463;DHT22;4268;52.506;13.462;2023-02-21T04:41:04;9.90;99.90
8463;DHT22;4268;52.506;13.462;2023-02-21T04:43:30;9.80;99.90
8463;DHT22;4268;52.506;13.462;2023-02-21T04:45:56;9.90;99.90
8463;DHT22;4268;52.506;13.462;2023-02-21T04:48:21;9.90;99.90
8463;DHT22;4268;52.506;13.462;2023-02-21T04:50:47;9.90;99.90
8463;DHT22;4268;52.506;13.462;2023-02-21T04:53:12;9.90;99.90
8463;DHT22;4268;52.506;13.462;2023-02-21T04:55:38;10.00;99.90
8463;DHT22;4268;52.506;13.462;2023-02-21T04:58:03;9.90;99.90
8463;DHT22;4268;52.506;13.462;2023-02-21T05:00:29;9.90;99.90
8463;DHT22;4268;52.506;13.462;2023-02-21T05:02:54;10.00;99.90
8463;DHT22;4268;52.506;13.462;2023-02-21T05:05:20;9.90;99.90
8463;DHT22;4268;52.506;13.462;2023-02-21T05:07:45;9.90;99.90
8463;DHT22;4268;52.506;13.462;2023-02-21T05:10:11;9.90;99.90
8463;DHT22;4268;52.506;13.462;2023-02-21T05:12:37;9.90;99.90
8463;DHT22;4268;52.506;13.462;2023-02-21T05:15:05;9.90;99.90
8463;DHT22;4268;52.506;13.462;2023-02-21T05:17:31;9.80;99.90
8463;DHT22;4268;52.506;13.462;2023-02-21T05:19:56;9.80;99.90
8463;DHT22;4268;52.506;13.462;2023-02-21T05:22:22;9.80;99.90
8463;DHT22;4268;52.506;13.462;2023-02-21T05:24:48;9.80;99.90
8463;DHT22;4268;52.506;13.462;2023-02-21T05:27:16;9.80;99.90
8463;DHT22;4268;52.506;13.462;2023-02-21T05:29:49;9.80;99.90
8463;DHT22;4268;52.506;13.462;2023-02-21T05:32:16;9.80;99.90
8463;DHT22;4268;52.506;13.462;2023-02-21T05:34:42;9.70;99.90
8463;DHT22;4268;52.506;13.462;2023-02-21T05:37:10;9.70;99.90
8463;DHT22;4268;52.506;13.462;2023-02-21T05:39:35;9.70;99.90
8463;DHT22;4268;52.506;13.462;2023-02-21T05:42:01;9.70;99.90
8463;DHT22;4268;52.506;13.462;2023-02-21T05:44:26;9.70;99.90
8463;DHT22;4268;52.506;13.462;2023-02-21T05:46:52;9.70;99.90
8463;DHT22;4268;52.506;13.462;2023-02-21T05:49:17;9.60;99.90
8463;DHT22;4268;52.506;13.462;2023-02-21T05:51:43;9.70;99.90
8463;DHT22;4268;52.506;13.462;2023-02-21T05:54:13;9.70;99.90
8463;DHT22;4268;52.506;13.462;2023-02-21T05:56:40;9.60;99.90
8463;DHT22;4268;52.506;13.462;2023-02-21T05:59:06;9.60;99.90
8463;DHT22;4268;52.506;13.462;2023-02-21T06:01:33;9.70;99.90
8463;DHT22;4268;52.506;13.462;2023-02-21T06:03:59;9.60;99.90
8463;DHT22;4268;52.506;13.462;2023-02-21T06:06:24;9.70;99.90
8463;DHT22;4268;52.506;13.462;2023-02-21T06:08:50;9.60;99.90
8463;DHT22;4268;52.506;13.462;2023-02-21T06:11:22;9.60;99.90
8463;DHT22;4268;52.506;13.462;2023-02-21T06:13:53;9.60;99.90
8463;DHT22;4268;52.506;13.462;2023-02-21T06:16:19;9.60;99.90
8463;DHT22;4268;52.506;13.462;2023-02-21T06:18:44;9.60;99.90
8463;DHT22;4268;52.506;13.462;2023-02-21T06:21:13;9.60;99.90
8463;DHT22;4268;52.506;13.462;2023-02-21T06:23:39;9.60;99.90
8463;DHT22;4268;52.506;13.462;2023-02-21T06:26:04;9.60;99.90
8463;DHT22;4268;52.506;13.462;2023-02-21T06:28:30;9.60;99.90
8463;DHT22;4268;52.506;13.462;2023-02-21T06:30:56;9.60;99.90
8463;DHT22;4268;52.506;13.462;2023-02-21T06:33:22;9.60;99.90
8463;DHT22;4268;52.506;13.462;2023-02-21T06:35:48;9.60;99.90
8463;DHT22;4268;52.506;13.462;2023-02-21T06:38:13;9.60;99.90
8463;DHT22;4268;52.506;13.462;2023-02-21T06:40:39;9.60;99.90
8463;DHT22;4268;52.506;13.462;2023-02-21T06:43:05;9.60;99.90
8463;DHT22;4268;52.506;13.462;2023-02-21T06:45:30;9.60;99.90
8463;DHT22;4268;52.506;13.462;2023-02-21T06:47:56;9.60;99.90
8463;DHT22;4268;52.506;13.462;2023-02-21T06:50:21;9.60;99.90
8463;DHT22;4268;52.506;13.462;2023-02-21T06:52:47;9.70;99.90
8463;DHT22;4268;52.506;13.462;2023-02-21T06:55:12;9.60;99.90
8463;DHT22;4268;52.506;13.462;2023-02-21T06:57:38;9.60;99.90
8463;DHT22;4268;52.506;13.462;2023-02-21T07:00:04;9.60;99.90
8463;DHT22;4268;52.506;13.462;2023-02-21T07:02:30;9.60;99.90
8463;DHT22;4268;52.506;13.462;2023-02-21T07:04:55;9.70;99.90
8463;DHT22;4268;52.506;13.462;2023-02-21T07:07:21;9.60;99.90
8463;DHT22;4268;52.506;13.462;2023-02-21T07:09:46;9.60;99.90
8463;DHT22;4268;52.506;13.462;2023-02-21T07:12:12;9.70;99.90
8463;DHT22;4268;52.506;13.462;2023-02-21T07:14:37;9.70;99.90
8463;DHT22;4268;52.506;13.462;2023-02-21T07:17:03;9.70;99.90
8463;DHT22;4268;52.506;13.462;2023-02-21T07:19:28;9.60;99.90
8463;DHT22;4268;52.506;13.462;2023-02-21T07:21:54;9.70;99.90
8463;DHT22;4268;52.506;13.462;2023-02-21T07:24:19;9.70;99.90
8463;DHT22;4268;52.506;13.462;2023-02-21T07:26:45;9.70;99.90
8463;DHT22;4268;52.506;13.462;2023-02-21T07:29:10;9.70;99.90
8463;DHT22;4268;52.506;13.462;2023-02-21T07:31:36;9.70;99.90
8463;DHT22;4268;52.506;13.462;2023-02-21T07:34:01;9.70;99.90
8463;DHT22;4268;52.506;13.462;2023-02-21T07:36:27;9.70;99.90
8463;DHT22;4268;52.506;13.462;2023-02-21T07:38:52;9.70;99.90
8463;DHT22;4268;52.506;13.462;2023-02-21T07:41:18;9.70;99.90
8463;DHT22;4268;52.506;13.462;2023-02-21T07:43:43;9.70;99.90
8463;DHT22;4268;52.506;13.462;2023-02-21T07:46:18;9.80;99.90
8463;DHT22;4268;52.506;13.462;2023-02-21T07:48:44;9.90;99.90
8463;DHT22;4268;52.506;13.462;2023-02-21T07:51:09;9.80;99.90
8463;DHT22;4268;52.506;13.462;2023-02-21T07:53:35;9.90;99.90
8463;DHT22;4268;52.506;13.462;2023-02-21T07:56:02;10.00;99.90
8463;DHT22;4268;52.506;13.462;2023-02-21T07:58:28;10.00;99.90
8463;DHT22;4268;52.506;13.462;2023-02-21T08:00:53;10.00;99.90
8463;DHT22;4268;52.506;13.462;2023-02-21T08:03:20;10.00;99.90
8463;DHT22;4268;52.506;13.462;2023-02-21T08:05:46;10.10;99.90
8463;DHT22;4268;52.506;13.462;2023-02-21T08:08:13;10.00;99.90
8463;DHT22;4268;52.506;13.462;2023-02-21T08:10:38;9.90;99.90
8463;DHT22;4268;52.506;13.462;2023-02-21T08:13:04;9.90;99.90
8463;DHT22;4268;52.506;13.462;2023-02-21T08:15:30;9.90;99.90
8463;DHT22;4268;52.506;13.462;2023-02-21T08:17:55;10.00;99.90
8463;DHT22;4268;52.506;13.462;2023-02-21T08:20:21;10.10;99.90
8463;DHT22;4268;52.506;13.462;2023-02-21T08:22:46;10.30;99.90
8463;DHT22;4268;52.506;13.462;2023-02-21T08:25:14;10.30;99.90
8463;DHT22;4268;52.506;13.462;2023-02-21T08:27:43;10.50;99.90
8463;DHT22;4268;52.506;13.462;2023-02-21T08:30:12;10.50;99.90
8463;DHT22;4268;52.506;13.462;2023-02-21T08:32:39;10.70;99.90
8463;DHT22;4268;52.506;13.462;2023-02-21T08:35:05;10.70;99.90
8463;DHT22;4268;52.506;13.462;2023-02-21T08:37:32;10.80;99.90
8463;DHT22;4268;52.506;13.462;2023-02-21T08:40:01;10.80;99.90
8463;DHT22;4268;52.506;13.462;2023-02-21T08:42:26;10.80;99.90
8463;DHT22;4268;52.506;13.462;2023-02-21T08:44:52;10.90;99.90
8463;DHT22;4268;52.506;13.462;2023-02-21T08:47:17;10.90;99.90
8463;DHT22;4268;52.506;13.462;2023-02-21T08:49:47;11.00;99.90
8463;DHT22;4268;52.506;13.462;2023-02-21T08:52:16;11.10;99.90
8463;DHT22;4268;52.506;13.462;2023-02-21T08:54:42;11.10;99.90
8463;DHT22;4268;52.506;13.462;2023-02-21T08:57:08;11.10;99.90
8463;DHT22;4268;52.506;13.462;2023-02-21T08:59:34;11.20;99.90
8463;DHT22;4268;52.506;13.462;2023-02-21T09:02:02;11.30;99.90
8463;DHT22;4268;52.506;13.462;2023-02-21T09:04:27;11.30;99.90
8463;DHT22;4268;52.506;13.462;2023-02-21T09:06:54;11.30;99.90
8463;DHT22;4268;52.506;13.462;2023-02-21T09:09:19;11.40;99.90
8463;DHT22;4268;52.506;13.462;2023-02-21T09:11:45;11.40;99.90
8463;DHT22;4268;52.506;13.462;2023-02-21T09:14:13;11.30;99.90
8463;DHT22;4268;52.506;13.462;2023-02-21T09:16:39;11.20;99.90
8463;DHT22;4268;52.506;13.462;2023-02-21T09:19:05;11.20;99.90
8463;DHT22;4268;52.506;13.462;2023-02-21T09:21:31;11.20;99.90
8463;DHT22;4268;52.506;13.462;2023-02-21T09:23:57;11.20;99.90
8463;DHT22;4268;52.506;13.462;2023-02-21T09:26:24;11.20;99.90
8463;DHT22;4268;52.506;13.462;2023-02-21T09:28:50;11.10;99.90
8463;DHT22;4268;52.506;13.462;2023-02-21T09:31:17;11.10;99.90
8463;DHT22;4268;52.506;13.462;2023-02-21T09:33:43;11.10;99.90
8463;DHT22;4268;52.506;13.462;2023-02-21T09:36:09;11.10;99.90
8463;DHT22;4268;52.506;13.462;2023-02-21T09:38:35;11.10;99.90
8463;DHT22;4268;52.506;13.462;2023-02-21T09:41:04;11.20;99.90
8463;DHT22;4268;52.506;13.462;2023-02-21T09:43:45;11.20;99.90
8463;DHT22;4268;52.506;13.462;2023-02-21T09:49:23;11.20;99.90
8463;DHT22;4268;52.506;13.462;2023-02-21T09:51:50;11.20;99.90
8463;DHT22;4268;52.506;13.462;2023-02-21T09:56:50;11.20;99.90
8463;DHT22;4268;52.506;13.462;2023-02-21T09:59:16;11.30;99.90
8463;DHT22;4268;52.506;13.462;2023-02-21T10:07:42;11.30;99.90
8463;DHT22;4268;52.506;13.462;2023-02-21T10:13:03;11.40;99.90
8463;DHT22;4268;52.506;13.462;2023-02-21T10:15:44;11.40;99.90
8463;DHT22;4268;52.506;13.462;2023-02-21T10:18:16;11.50;99.90
8463;DHT22;4268;52.506;13.462;2023-02-21T10:23:36;11.50;99.90
8463;DHT22;4268;52.506;13.462;2023-02-21T10:26:11;11.50;99.90
8463;DHT22;4268;52.506;13.462;2023-02-21T10:28:37;11.50;99.90
8463;DHT22;4268;52.506;13.462;2023-02-21T10:31:32;11.60;99.90
8463;DHT22;4268;52.506;13.462;2023-02-21T10:33:59;11.70;99.90
8463;DHT22;4268;52.506;13.462;2023-02-21T10:36:25;11.70;99.90
8463;DHT22;4268;52.506;13.462;2023-02-21T10:39:08;11.60;99.90
8463;DHT22;4268;52.506;13.462;2023-02-21T10:41:37;11.60;99.90
8463;DHT22;4268;52.506;13.462;2023-02-21T10:44:13;11.50;99.90
8463;DHT22;4268;52.506;13.462;2023-02-21T10:46:48;11.60;99.90
8463;DHT22;4268;52.506;13.462;2023-02-21T10:49:33;11.60;99.90
8463;DHT22;4268;52.506;13.462;2023-02-21T10:52:10;11.60;99.90
8463;DHT22;4268;52.506;13.462;2023-02-21T10:54:36;11.70;99.90
8463;DHT22;4268;52.506;13.462;2023-02-21T10:57:05;11.70;99.90
8463;DHT22;4268;52.506;13.462;2023-02-21T10:59:36;11.70;99.90
8463;DHT22;4268;52.506;13.462;2023-02-21T11:02:24;11.70;99.90
8463;DHT22;4268;52.506;13.462;2023-02-21T11:04:51;11.70;99.90
8463;DHT22;4268;52.506;13.462;2023-02-21T11:07:18;11.70;99.90
8463;DHT22;4268;52.506;13.462;2023-02-21T11:09:45;11.60;99.90
8463;DHT22;4268;52.506;13.462;2023-02-21T11:14:36;12.30;99.90
8463;DHT22;4268;52.506;13.462;2023-02-21T11:17:10;9.60;99.90
8463;DHT22;4268;52.506;13.462;2023-02-21T11:19:51;10.70;99.90
8463;DHT22;4268;52.506;13.462;2023-02-21T11:22:22;11.50;99.90
8463;DHT22;4268;52.506;13.462;2023-02-21T11:24:56;11.50;99.90
8463;DHT22;4268;52.506;13.462;2023-02-21T11:27:23;11.50;99.90
8463;DHT22;4268;52.506;13.462;2023-02-21T11:29:51;11.50;99.90
8463;DHT22;4268;52.506;13.462;2023-02-21T11:32:38;11.60;99.90
8463;DHT22;4268;52.506;13.462;2023-02-21T11:35:29;11.50;99.90
8463;DHT22;4268;52.506;13.462;2023-02-21T11:37:56;11.60;99.90
8463;DHT22;4268;52.506;13.462;2023-02-21T11:40:43;11.60;99.90
8463;DHT22;4268;52.506;13.462;2023-02-21T11:43:18;11.60;99.90
8463;DHT22;4268;52.506;13.462;2023-02-21T11:46:09;11.60;99.90
8463;DHT22;4268;52.506;13.462;2023-02-21T11:51:47;11.60;99.90
8463;DHT22;4268;52.506;13.462;2023-02-21T11:54:13;11.70;99.90
8463;DHT22;4268;52.506;13.462;2023-02-21T11:57:00;11.80;99.90
8463;DHT22;4268;52.506;13.462;2023-02-21T12:05:06;11.50;99.90
8463;DHT22;4268;52.506;13.462;2023-02-21T12:07:47;11.50;99.90
8463;DHT22;4268;52.506;13.462;2023-02-21T12:10:47;11.50;99.90
8463;DHT22;4268;52.506;13.462;2023-02-21T12:13:36;11.60;99.90
8463;DHT22;4268;52.506;13.462;2023-02-21T12:16:40;11.80;99.90
8463;DHT22;4268;52.506;13.462;2023-02-21T12:25:22;11.80;99.90
8463;DHT22;4268;52.506;13.462;2023-02-21T12:30:51;11.70;99.90
8463;DHT22;4268;52.506;13.462;2023-02-21T12:33:43;11.50;99.90
8463;DHT22;4268;52.506;13.462;2023-02-21T12:36:37;11.50;99.90
8463;DHT22;4268;52.506;13.462;2023-02-21T12:39:34;11.60;99.90
8463;DHT22;4268;52.506;13.462;2023-02-21T12:42:27;11.50;99.90
8463;DHT22;4268;52.506;13.462;2023-02-21T12:48:16;11.70;99.90
8463;DHT22;4268;52.506;13.462;2023-02-21T12:50:45;11.80;99.90
8463;DHT22;4268;52.506;13.462;2023-02-21T12:53:16;11.70;99.90
8463;DHT22;4268;52.506;13.462;2023-02-21T12:56:05;11.70;99.90
8463;DHT22;4268;52.506;13.462;2023-02-21T12:58:48;11.70;99.90
8463;DHT22;4268;52.506;13.462;2023-02-21T13:01:27;11.70;99.90
8463;DHT22;4268;52.506;13.462;2023-02-21T13:04:17;11.60;99.90
8463;DHT22;4268;52.506;13.462;2023-02-21T13:06:52;11.50;99.90
8463;DHT22;4268;52.506;13.462;2023-02-21T13:09:25;11.50;99.90
8463;DHT22;4268;52.506;13.462;2023-02-21T13:12:11;11.40;99.90
8463;DHT22;4268;52.506;13.462;2023-02-21T13:14:47;11.30;99.90
8463;DHT22;4268;52.506;13.462;2023-02-21T13:17:14;11.30;99.90
8463;DHT22;4268;52.506;13.462;2023-02-21T13:19:47;11.30;99.90
8463;DHT22;4268;52.506;13.462;2023-02-21T13:28:30;11.30;99.90
8463;DHT22;4268;52.506;13.462;2023-02-21T13:31:01;11.20;99.90
8463;DHT22;4268;52.506;13.462;2023-02-21T13:33:39;11.20;99.90
8463;DHT22;4268;52.506;13.462;2023-02-21T13:36:25;11.20;99.90
8463;DHT22;4268;52.506;13.462;2023-02-21T13:41:50;11.20;99.90
8463;DHT22;4268;52.506;13.462;2023-02-21T13:44:30;11.20;99.90
8463;DHT22;4268;52.506;13.462;2023-02-21T13:47:10;11.20;99.90
8463;DHT22;4268;52.506;13.462;2023-02-21T13:57:42;11.30;99.90
8463;DHT22;4268;52.506;13.462;2023-02-21T14:02:55;11.30;99.90
8463;DHT22;4268;52.506;13.462;2023-02-21T14:05:22;11.40;99.90
8463;DHT22;4268;52.506;13.462;2023-02-21T14:07:55;11.30;99.90
8463;DHT22;4268;52.506;13.462;2023-02-21T14:10:36;11.30;99.90
8463;DHT22;4268;52.506;13.462;2023-02-21T14:13:06;11.20;99.90
8463;DHT22;4268;52.506;13.462;2023-02-21T14:15:41;11.20;99.90
8463;DHT22;4268;52.506;13.462;2023-02-21T14:18:17;11.10;99.90
8463;DHT22;4268;52.506;13.462;2023-02-21T14:20:46;11.00;99.90
8463;DHT22;4268;52.506;13.462;2023-02-21T14:23:15;11.00;99.90
8463;DHT22;4268;52.506;13.462;2023-02-21T14:25:57;11.00;99.90
8463;DHT22;4268;52.506;13.462;2023-02-21T14:28:50;10.90;99.90
8463;DHT22;4268;52.506;13.462;2023-02-21T14:34:16;11.00;99.90
8463;DHT22;4268;52.506;13.462;2023-02-21T14:36:44;11.00;99.90
8463;DHT22;4268;52.506;13.462;2023-02-21T14:39:11;11.00;99.90
8463;DHT22;4268;52.506;13.462;2023-02-21T14:42:00;11.00;99.90
8463;DHT22;4268;52.506;13.462;2023-02-21T14:44:36;11.10;99.90
8463;DHT22;4268;52.506;13.462;2023-02-21T14:47:34;11.10;99.90
8463;DHT22;4268;52.506;13.462;2023-02-21T14:50:06;11.10;99.90
8463;DHT22;4268;52.506;13.462;2023-02-21T14:55:47;11.00;99.90
8463;DHT22;4268;52.506;13.462;2023-02-21T15:01:01;10.90;99.90
8463;DHT22;4268;52.506;13.462;2023-02-21T15:04:11;10.90;99.90
8463;DHT22;4268;52.506;13.462;2023-02-21T15:06:42;10.90;99.90
8463;DHT22;4268;52.506;13.462;2023-02-21T15:09:17;10.90;99.90
8463;DHT22;4268;52.506;13.462;2023-02-21T15:11:43;10.80;99.90
8463;DHT22;4268;52.506;13.462;2023-02-21T15:14:15;10.70;99.90
8463;DHT22;4268;52.506;13.462;2023-02-21T15:16:49;10.70;99.90
8463;DHT22;4268;52.506;13.462;2023-02-21T15:19:35;10.70;99.90
8463;DHT22;4268;52.506;13.462;2023-02-21T15:22:12;10.70;99.90
8463;DHT22;4268;52.506;13.462;2023-02-21T15:24:38;10.70;99.90
8463;DHT22;4268;52.506;13.462;2023-02-21T15:27:11;10.60;99.90
8463;DHT22;4268;52.506;13.462;2023-02-21T15:29:38;10.60;99.90
8463;DHT22;4268;52.506;13.462;2023-02-21T15:32:05;10.70;99.90
8463;DHT22;4268;52.506;13.462;2023-02-21T15:34:33;10.60;99.90
8463;DHT22;4268;52.506;13.462;2023-02-21T15:37:02;10.60;99.90
8463;DHT22;4268;52.506;13.462;2023-02-21T15:39:32;10.60;99.90
8463;DHT22;4268;52.506;13.462;2023-02-21T15:42:01;10.60;99.90
8463;DHT22;4268;52.506;13.462;2023-02-21T15:44:31;10.60;99.90
8463;DHT22;4268;52.506;13.462;2023-02-21T15:47:06;10.50;99.90
8463;DHT22;4268;52.506;13.462;2023-02-21T15:49:38;10.50;99.90
8463;DHT22;4268;52.506;13.462;2023-02-21T15:52:05;10.40;99.90
8463;DHT22;4268;52.506;13.462;2023-02-21T15:54:33;10.40;99.90
8463;DHT22;4268;52.506;13.462;2023-02-21T15:57:21;10.50;99.90
8463;DHT22;4268;52.506;13.462;2023-02-21T15:59:49;10.30;99.90
8463;DHT22;4268;52.506;13.462;2023-02-21T16:02:21;10.30;99.90
8463;DHT22;4268;52.506;13.462;2023-02-21T16:04:51;10.30;99.90
8463;DHT22;4268;52.506;13.462;2023-02-21T16:07:30;10.20;99.90
8463;DHT22;4268;52.506;13.462;2023-02-21T16:10:02;10.20;99.90
8463;DHT22;4268;52.506;13.462;2023-02-21T16:12:33;10.10;99.90
8463;DHT22;4268;52.506;13.462;2023-02-21T16:15:06;10.10;99.90
8463;DHT22;4268;52.506;13.462;2023-02-21T16:17:39;10.10;99.90
8463;DHT22;4268;52.506;13.462;2023-02-21T16:20:21;10.00;99.90
8463;DHT22;4268;52.506;13.462;2023-02-21T16:22:50;10.10;99.90
8463;DHT22;4268;52.506;13.462;2023-02-21T16:25:56;10.10;99.90
8463;DHT22;4268;52.506;13.462;2023-02-21T16:28:22;10.10;99.90
8463;DHT22;4268;52.506;13.462;2023-02-21T16:30:48;10.00;99.90
8463;DHT22;4268;52.506;13.462;2023-02-21T16:33:14;10.00;99.90
8463;DHT22;4268;52.506;13.462;2023-02-21T16:35:40;9.90;99.90
8463;DHT22;4268;52.506;13.462;2023-02-21T16:38:06;9.90;99.90
8463;DHT22;4268;52.506;13.462;2023-02-21T16:40:35;9.90;99.90
8463;DHT22;4268;52.506;13.462;2023-02-21T16:43:02;9.80;99.90
8463;DHT22;4268;52.506;13.462;2023-02-21T16:45:29;9.90;99.90
8463;DHT22;4268;52.506;13.462;2023-02-21T16:48:00;9.80;99.90
8463;DHT22;4268;52.506;13.462;2023-02-21T16:52:54;9.80;99.90
8463;DHT22;4268;52.506;13.462;2023-02-21T16:55:19;9.80;99.90
8463;DHT22;4268;52.506;13.462;2023-02-21T16:57:47;9.80;99.90
8463;DHT22;4268;52.506;13.462;2023-02-21T17:00:14;9.80;99.90
8463;DHT22;4268;52.506;13.462;2023-02-21T17:02:40;9.80;99.90
8463;DHT22;4268;52.506;13.462;2023-02-21T17:05:05;9.80;99.90
8463;DHT22;4268;52.506;13.462;2023-02-21T17:07:31;9.70;99.90
8463;DHT22;4268;52.506;13.462;2023-02-21T17:09:56;9.80;99.90
8463;DHT22;4268;52.506;13.462;2023-02-21T17:12:22;9.70;99.90
8463;DHT22;4268;52.506;13.462;2023-02-21T17:14:48;9.70;99.90
8463;DHT22;4268;52.506;13.462;2023-02-21T17:17:13;9.70;99.90
8463;DHT22;4268;52.506;13.462;2023-02-21T17:19:39;9.70;99.90
8463;DHT22;4268;52.506;13.462;2023-02-21T17:22:05;9.70;99.90
8463;DHT22;4268;52.506;13.462;2023-02-21T17:24:30;9.60;99.90
8463;DHT22;4268;52.506;13.462;2023-02-21T17:26:56;9.60;99.90
8463;DHT22;4268;52.506;13.462;2023-02-21T17:29:22;9.60;99.90
8463;DHT22;4268;52.506;13.462;2023-02-21T17:31:52;10.50;99.90
8463;DHT22;4268;52.506;13.462;2023-02-21T17:34:18;9.60;99.90
8463;DHT22;4268;52.506;13.462;2023-02-21T17:36:47;9.50;99.90
8463;DHT22;4268;52.506;13.462;2023-02-21T17:39:15;9.60;99.90
8463;DHT22;4268;52.506;13.462;2023-02-21T17:41:46;9.50;99.90
8463;DHT22;4268;52.506;13.462;2023-02-21T17:44:12;9.50;99.90
8463;DHT22;4268;52.506;13.462;2023-02-21T17:46:38;9.50;99.90
8463;DHT22;4268;52.506;13.462;2023-02-21T17:49:03;9.50;99.90
8463;DHT22;4268;52.506;13.462;2023-02-21T17:51:29;9.50;99.90
8463;DHT22;4268;52.506;13.462;2023-02-21T17:53:54;9.50;99.90
8463;DHT22;4268;52.506;13.462;2023-02-21T17:56:22;9.70;99.90